createdAt,value
2018-09-27T00:00:39.796Z,80.30
2018-09-27T00:03:08.957Z,80.20
2018-09-27T00:05:38.280Z,80.80
2018-09-27T00:08:07.469Z,81.90
2018-09-27T00:10:42.609Z,82.90
2018-09-27T00:13:11.755Z,82.00
2018-09-27T00:15:40.936Z,85.70
2018-09-27T00:18:39.238Z,84.00
2018-09-27T00:21:08.489Z,83.30
2018-09-27T00:23:41.207Z,83.90
2018-09-27T00:26:10.427Z,84.40
2018-09-27T00:28:39.573Z,86.10
2018-09-27T00:31:08.860Z,84.40
2018-09-27T00:33:38.002Z,84.60
2018-09-27T00:36:07.229Z,84.70
2018-09-27T00:38:36.570Z,86.90
2018-09-27T00:41:05.869Z,84.90
2018-09-27T00:43:35.013Z,88.40
2018-09-27T00:46:23.844Z,85.50
2018-09-27T00:48:52.982Z,85.10
2018-09-27T00:51:22.140Z,86.30
2018-09-27T00:53:51.350Z,84.70
2018-09-27T00:56:20.545Z,84.90
2018-09-27T00:58:49.697Z,84.10
2018-09-27T01:01:18.851Z,82.70
2018-09-27T01:03:48.041Z,82.40
2018-09-27T01:06:17.401Z,83.30
2018-09-27T01:11:47.215Z,82.10
2018-09-27T01:14:16.555Z,81.80
2018-09-27T01:16:45.721Z,81.70
2018-09-27T01:19:14.947Z,82.40
2018-09-27T01:21:44.122Z,82.50
2018-09-27T01:24:13.281Z,82.10
2018-09-27T01:26:42.532Z,82.60
2018-09-27T01:29:11.690Z,84.20
2018-09-27T01:31:40.845Z,84.10
2018-09-27T01:34:10.057Z,83.20
2018-09-27T01:36:39.237Z,82.80
2018-09-27T01:45:09.332Z,82.10
2018-09-27T01:47:38.491Z,83.20
2018-09-27T01:50:07.677Z,82.50
2018-09-27T01:52:36.894Z,82.50
2018-09-27T01:55:06.071Z,82.80
2018-09-27T01:57:35.377Z,82.60
2018-09-27T02:00:04.559Z,82.60
2018-09-27T02:02:41.209Z,83.20
2018-09-27T02:05:10.364Z,83.80
2018-09-27T02:07:39.572Z,84.10
2018-09-27T02:10:08.724Z,84.10
2018-09-27T02:12:38.624Z,84.20
2018-09-27T02:15:07.788Z,87.00
2018-09-27T02:17:36.987Z,84.20
2018-09-27T02:20:06.241Z,84.90
2018-09-27T02:22:35.389Z,85.90
2018-09-27T02:25:04.608Z,85.40
2018-09-27T02:27:33.817Z,86.20
2018-09-27T02:30:02.998Z,85.00
2018-09-27T02:32:42.403Z,85.10
2018-09-27T02:35:11.608Z,85.20
2018-09-27T02:37:40.878Z,83.90
2018-09-27T02:40:10.843Z,83.80
2018-09-27T02:42:40.041Z,84.00
2018-09-27T02:45:09.281Z,83.30
2018-09-27T02:47:39.293Z,83.20
2018-09-27T02:50:08.457Z,83.80
2018-09-27T02:52:41.167Z,83.70
2018-09-27T02:55:10.437Z,83.20
2018-09-27T02:57:39.661Z,84.60
2018-09-27T03:00:09.004Z,83.90
2018-09-27T03:02:41.393Z,84.30
2018-09-27T03:05:10.566Z,83.70
2018-09-27T03:07:39.769Z,84.00
2018-09-27T03:10:08.944Z,83.40
2018-09-27T03:12:38.100Z,83.70
2018-09-27T03:15:07.301Z,83.90
2018-09-27T03:17:36.464Z,84.00
2018-09-27T03:23:05.447Z,84.60
2018-09-27T03:25:34.601Z,84.40
2018-09-27T03:28:03.830Z,84.50
2018-09-27T03:30:33.078Z,85.00
2018-09-27T03:33:02.410Z,84.50
2018-09-27T03:35:31.618Z,84.50
2018-09-27T03:38:00.864Z,84.10
2018-09-27T03:40:30.122Z,84.60
2018-09-27T03:42:59.258Z,84.40
2018-09-27T03:45:28.455Z,84.10
2018-09-27T03:50:57.690Z,84.50
2018-09-27T03:53:26.912Z,84.30
2018-09-27T03:55:56.108Z,84.20
2018-09-27T03:58:25.406Z,84.70
2018-09-27T04:00:54.560Z,84.80
2018-09-27T04:03:23.807Z,85.30
2018-09-27T04:05:52.966Z,85.10
2018-09-27T04:08:22.229Z,85.40
2018-09-27T04:10:51.435Z,85.00
2018-09-27T04:13:20.584Z,85.50
2018-09-27T04:15:49.806Z,85.50
2018-09-27T04:18:18.977Z,85.30
2018-09-27T04:20:54.572Z,85.60
2018-09-27T04:23:24.449Z,86.60
2018-09-27T04:25:53.701Z,85.50
2018-09-27T04:28:23.046Z,85.60
2018-09-27T04:30:52.255Z,85.70
2018-09-27T04:33:21.457Z,85.90
2018-09-27T04:35:50.601Z,86.10
2018-09-27T04:38:19.771Z,86.40
2018-09-27T04:40:49.007Z,86.10
2018-09-27T04:43:41.126Z,87.00
2018-09-27T04:46:10.321Z,87.50
2018-09-27T04:48:39.567Z,87.80
2018-09-27T04:51:08.748Z,88.40
2018-09-27T04:53:38.918Z,88.50
2018-09-27T04:56:08.111Z,88.90
2018-09-27T04:58:37.358Z,89.50
2018-09-27T05:01:06.652Z,90.00
2018-09-27T05:03:35.845Z,90.00
2018-09-27T05:06:05.105Z,90.00
2018-09-27T05:08:40.853Z,90.20
2018-09-27T05:11:38.768Z,90.40
2018-09-27T05:17:38.569Z,91.00
2018-09-27T05:29:38.621Z,91.60
2018-09-27T05:35:40.485Z,92.00
2018-09-27T05:38:39.234Z,92.20
2018-09-27T07:02:22.414Z,97.00
2018-09-27T07:07:52.043Z,97.20
2018-09-27T07:10:40.088Z,96.70
2018-09-27T07:22:23.565Z,97.00
2018-09-27T07:45:57.049Z,97.80
2018-09-27T07:48:40.494Z,97.50
2018-09-27T07:51:38.612Z,97.50
2018-09-27T08:06:38.743Z,98.70
2018-09-27T08:09:20.754Z,97.60
2018-09-27T08:11:49.986Z,98.60
2018-09-27T08:14:39.633Z,99.00
2018-09-27T08:26:39.371Z,99.90
2018-09-27T08:29:21.190Z,99.90
2018-09-27T08:31:50.406Z,99.90
2018-09-27T08:34:40.302Z,99.90
2018-09-27T08:43:39.253Z,99.90
2018-09-27T08:49:38.870Z,99.90
2018-09-27T09:07:39.348Z,99.90
2018-09-27T09:16:38.637Z,99.90
2018-09-27T09:22:08.763Z,99.90
2018-09-27T09:27:41.474Z,99.90
2018-09-27T09:30:39.384Z,99.90
2018-09-27T09:36:38.874Z,99.90
2018-09-27T09:39:22.038Z,99.90
2018-09-27T10:09:22.605Z,99.90
2018-09-27T10:11:52.765Z,99.90
2018-09-27T10:14:41.003Z,99.90
2018-09-27T10:17:38.925Z,99.90
2018-09-27T10:29:09.441Z,99.90
2018-09-27T10:31:41.734Z,99.90
2018-09-27T10:34:40.372Z,99.90
2018-09-27T10:37:39.120Z,99.90
2018-09-27T10:49:21.863Z,99.90
2018-09-27T10:51:51.052Z,99.90
2018-09-27T10:54:40.223Z,99.90
2018-09-27T11:06:39.177Z,99.90
2018-09-27T11:09:23.822Z,99.90
2018-09-27T11:11:53.029Z,99.90
2018-09-27T11:59:53.582Z,99.90
2018-09-27T12:02:41.511Z,99.90
2018-09-27T12:05:10.689Z,99.90
2018-09-27T12:07:39.981Z,99.90
2018-09-27T12:10:09.206Z,99.90
2018-09-27T12:12:38.457Z,99.90
2018-09-27T12:15:07.858Z,99.90
2018-09-27T12:17:37.046Z,99.90
2018-09-27T12:20:06.567Z,99.90
2018-09-27T12:22:41.575Z,99.90
2018-09-27T12:25:39.708Z,99.90
2018-09-27T12:34:39.235Z,99.90
2018-09-27T12:39:59.417Z,99.90
2018-09-27T12:45:49.231Z,99.90
2018-09-27T12:48:41.104Z,99.90
2018-09-27T13:11:40.769Z,99.90
2018-09-27T13:17:39.496Z,99.90
2018-09-27T13:20:09.868Z,99.90
2018-09-27T13:22:42.982Z,99.90
2018-09-27T13:28:39.343Z,99.10
2018-09-27T13:31:25.368Z,98.80
2018-09-27T14:07:10.190Z,98.30
2018-09-27T14:09:39.491Z,98.10
2018-09-27T14:21:30.439Z,97.40
2018-09-27T14:23:59.720Z,97.30
2018-09-27T14:26:41.672Z,97.50
2018-09-27T14:29:27.432Z,97.30
2018-09-27T14:33:00.521Z,97.10
2018-09-27T14:35:42.319Z,97.30
2018-09-27T14:41:39.623Z,96.80
2018-09-27T14:47:39.142Z,96.40
2018-09-27T14:56:39.271Z,96.30
2018-09-27T15:20:05.473Z,95.40
2018-09-27T15:22:41.664Z,95.60
2018-09-27T15:25:39.582Z,96.00
2018-09-27T15:34:39.077Z,95.50
2018-09-27T15:43:39.582Z,95.50
2018-09-27T15:49:39.112Z,95.40
2018-09-27T15:58:39.398Z,95.20
2018-09-27T16:07:39.063Z,95.60
2018-09-27T16:10:08.262Z,95.60
2018-09-27T16:12:37.464Z,94.40
2018-09-27T16:15:06.817Z,95.30
2018-09-27T16:17:41.985Z,95.30
2018-09-27T16:20:11.238Z,95.00
2018-09-27T16:22:40.444Z,95.00
2018-09-27T16:25:09.647Z,94.70
2018-09-27T16:27:38.871Z,94.70
2018-09-27T16:30:08.026Z,94.90
2018-09-27T16:32:42.936Z,94.40
2018-09-27T16:35:12.163Z,93.40
2018-09-27T16:37:41.411Z,93.50
2018-09-27T16:40:10.589Z,93.70
2018-09-27T16:42:39.750Z,91.70
2018-09-27T16:45:09.018Z,91.90
2018-09-27T16:47:38.192Z,92.90
2018-09-27T16:50:07.395Z,93.20
2018-09-27T16:52:36.639Z,91.40
2018-09-27T16:55:05.890Z,93.40
2018-09-27T16:57:35.069Z,93.80
2018-09-27T17:00:04.290Z,90.80
2018-09-27T17:05:25.940Z,92.00
2018-09-27T17:07:55.158Z,91.80
2018-09-27T17:10:24.697Z,91.60
2018-09-27T17:12:54.279Z,92.10
2018-09-27T17:15:23.462Z,90.90
2018-09-27T17:17:52.736Z,92.40
2018-09-27T17:20:22.466Z,91.70
2018-09-27T17:22:51.617Z,91.90
2018-09-27T17:25:40.723Z,91.40
2018-09-27T17:31:39.679Z,92.10
2018-09-27T17:49:05.209Z,91.90
2018-09-27T18:51:56.072Z,93.50
2018-09-27T18:54:41.438Z,93.20
2018-09-27T18:57:39.903Z,93.20
2018-09-27T19:00:11.634Z,93.20
2018-09-27T19:02:43.859Z,93.30
2018-09-27T19:05:15.771Z,93.80
2018-09-27T19:07:46.733Z,93.50
2018-09-27T19:10:17.346Z,93.40
2018-09-27T19:20:43.696Z,93.50
2018-09-27T19:23:39.841Z,94.10
2018-09-27T19:29:09.121Z,94.90
2018-09-27T19:31:38.311Z,94.40
2018-09-27T19:34:07.546Z,95.70
2018-09-27T19:36:36.785Z,96.10
2018-09-27T19:39:09.210Z,94.50
2018-09-27T19:41:38.709Z,94.90
2018-09-27T19:44:07.955Z,94.10
2018-09-27T19:46:37.304Z,94.30
2018-09-27T19:49:06.501Z,94.50
2018-09-27T19:51:41.769Z,94.20
2018-09-27T19:54:11.020Z,93.90
2018-09-27T19:56:40.550Z,94.20
2018-09-27T19:59:09.985Z,94.10
2018-09-27T20:01:39.213Z,94.40
2018-09-27T20:04:08.501Z,95.50
2018-09-27T20:06:37.642Z,94.60
2018-09-27T20:09:10.958Z,94.70
2018-09-27T20:11:40.217Z,94.50
2018-09-27T20:14:09.653Z,94.50
2018-09-27T20:16:38.946Z,95.80
2018-09-27T20:19:29.126Z,95.50
2018-09-27T20:21:58.419Z,94.80
2018-09-27T20:24:41.238Z,95.50
2018-09-27T20:27:11.225Z,95.10
2018-09-27T20:29:41.951Z,94.70
2018-09-27T20:32:11.152Z,94.80
2018-09-27T20:34:43.938Z,94.70
2018-09-27T20:37:39.434Z,94.80
2018-09-27T20:52:39.764Z,94.90
2018-09-27T20:58:39.223Z,95.50
2018-09-27T21:13:39.790Z,95.80
2018-09-27T21:22:40.245Z,95.90
2018-09-27T21:25:39.242Z,95.80
2018-09-27T21:55:39.437Z,96.40
2018-09-27T22:07:39.235Z,96.40
2018-09-27T22:19:39.761Z,97.00
2018-09-27T22:25:39.422Z,96.50
2018-09-27T22:34:40.173Z,96.90
2018-09-27T22:37:09.845Z,96.70
2018-09-27T22:39:42.158Z,96.70
2018-09-27T22:42:40.637Z,96.70
2018-09-27T23:06:47.649Z,97.00
2018-09-27T23:09:41.829Z,97.40
2018-09-27T23:12:40.847Z,97.20
2018-09-27T23:15:39.669Z,97.30
2018-09-27T23:27:39.765Z,97.80
2018-09-27T23:42:39.702Z,97.50
2018-09-27T23:51:39.352Z,99.00
